Warning: Javascript must be enabled to use all the features on this page!


Page Loading - Please Wait...

Click to hideNews Bulletins

Peak Streamflow for the Nation

USGS 02025500 JAMES RIVER AT HOLCOMB ROCK, VA

Bedford County, Virginia
Hydrologic Unit Code 02080203
Latitude  37°30'04", Longitude  79°15'46" NAD27
Drainage area 3,256  square miles
Gage datum 547.83 feet above NAVD88
Output formats
Table
Graph
Tab-separated file
peakfq (watstore) format
Reselect output format
Water
Year
Date Gage
Height
(feet)
Stream-
flow
(cfs)
1900 1900-03-21 11.303 29,000
1901 1901-04-21 16.503 52,000
1902 1902-03-01 21.003 78,000
1903 1903-03-24 16.603 53,000
1904 1904-05-19 11.803 31,000
1905 1905-07-13 17.703 58,000
1906 1906-01-24 11.003 28,000
1907 1906-10-20 19.503 69,000
1908 1908-01-13 19.603 70,000
1909 1909-04-14 17.503 58,000
1910 1910-06-14 15.903 50,000
1911 1911-01-31 12.003 32,000
1912 1912-03-30 17.003 55,000
1913 1913-03-28 31.303 118,000
1914 1914-02-01 10.203 25,000
1915 1915-01-07 21.003 78,000
1916 1915-12-30 10.503 26,000
1917 1917-03-05 16.603 53,000
1926 1926   31,0002,Bm
1927 1926-12-27 14.503 45,0002
1928 1928-08   65,0002,Bd
1929 1929-03-01 12.833 37,3002
1930 1929-11-19 14.923 46,8002
1931 1931-03-30 7.293 14,6002
1932 1932-02-05 17.90 38,700
1933 1932-10-17 19.42 45,300
1934 1934-03-29 17.66 37,800
1935 1935-01-23 26.61 86,300
1936 1936-03-18 30.78 115,000
1937 1937-01-21 21.15 53,100
1938 1937-10-20 22.52 59,000
1939 1939-01-31 18.62 41,600
1940 1940-08-16 24.25 66,800
1941 1941-07-08 14.35 25,000
1942 1942-05-22 24.62 68,700
1943 1942-12-31 18.48 41,200
1944 1944-09-19 16.60 33,300
1945 1945-09-19 15.70 29,800
1946 1946-01-08 17.94 38,700
1947 1947-03-15 15.90 30,600
1948 1948-02-15 19.90 47,600
1949 1949-04-14 22.90 63,300
1950 1950-09-10 24.00 69,900
1951 1950-12-08 22.83 62,700
1952 1952-03-12 20.33 49,600
1953 1953-02-22 21.63 56,100
1954 1954-03-02 22.80 62,700
1955 1955-03-07 23.33 65,900
1956 1956-03-15 12.60 18,800
1957 1957-04-06 22.36 60,500
1958 1958-03-31 18.08 39,500
1959 1959-09-30 15.49 29,000
1960 1960-03-31 22.00 58,300
1961 1961-02-27 14.69 26,000
1962 1961-10-21 21.87 57,800
1963 1963-03-13 24.75 74,700
1964 1964-03-06 16.25 31,700
1965 1965-02-08 18.70 42,100
1966 1966-02-14 18.35 40,800
1967 1967-03-08 22.46 61,000
1968 1968-03-14 14.73 26,000
1969 1969-08-20 35.50 150,000
1970 1970-01-01 22.20 59,400
1971 1971-05-31 22.62 61,600
1972 1972-06-22 32.38 126,000
1973 1973-05-29 21.89 57,700
1974 1973-12-27 24.69 74,000
1975 1975-03-20 22.53 61,200
1976 1976-01-02 18.25 40,200
1977 1977-04-06 23.47 66,700
1978 1978-01-26 25.59 79,700
1979 1979-02-26 24.56 73,300
1980 1980-04-15 21.84 57,4006
1981 1981-05-29 15.70 29,8006
1982 1982-06-13 23.67 67,9006
1983 1983-04-11 18.97 43,4006
1984 1984-02-15 22.63 61,8006
1985 1985-08-19 14.29 24,6006
1986 1985-11-05 42.15 207,0006
1987 1987-04-17 28.36 97,9006
1988 1988-01-21 12.14 17,4006
1989 1989-05-06 19.52 45,9006
1990 1990-01-01 17.16 35,6006
1991 1991-01-12 18.94 43,3006
1992 1992-04-22 29.48 105,0006
1993 1993-03-05 23.15 64,9006
1994 1994-03-29 16.83 34,3006
1995 1995-06-28 26.87 87,8006
1996 1996-01-20 30.96 116,0006
1997 1996-12-02 21.46 55,5006
1998 1998-01-09   48,5001,2,6
1999 1999-01-25 11.70 16,2006
2000 2000-04-19 14.06 23,8006
2001 2001-05-23 14.51 25,4006
2002 2002-04-23 13.18 20,8006
2003 2003-02-23 25.43 78,6006
2004 2004-09-29 24.35 71,9006
2005 2005-03-29 15.64 29,6006
2006 2006-06-28 22.74 66,8006
2007 2006-11-17 19.69 50,6006
2008 2008-04-29 14.85 28,8006
2009 2009-05-17 13.01 21,8006
2010 2010-01-26 23.78 72,7006
2011 2011-04-17 20.68 48,9006
2012 2011-12-08 19.09 41,8006
2013 2013-05-08 21.71 53,8006
2014 2014-02-04 15.24 27,7006
2015 2015-03-06 18.21 38,5006
2016 2016-06-24 19.36 45,6006
2017 2017-05-25 20.11 49,1006
2018 2018-04-17 20.84 52,6006
2019 2019-02-24 20.27 49,9006
2020 2020-05-22 19.74 47,3006
2021 2021-09-23 17.36 36,9006
?
  Peak Gage-Height Qualification Codes.
?
  Peak Streamflow Qualification Codes.